sensor_id;sensor_type;location;lat;lon;timestamp;P1;durP1;ratioP1;P2;durP2;ratioP2
2860;SDS011;1438;50.922;6.704;2023-04-28T00:00:17;8.47;;;4.00;;
2860;SDS011;1438;50.922;6.704;2023-04-28T00:02:43;4.63;;;2.90;;
2860;SDS011;1438;50.922;6.704;2023-04-28T00:05:12;5.93;;;3.53;;
2860;SDS011;1438;50.922;6.704;2023-04-28T00:07:38;8.20;;;4.10;;
2860;SDS011;1438;50.922;6.704;2023-04-28T00:10:04;4.37;;;3.80;;
2860;SDS011;1438;50.922;6.704;2023-04-28T00:12:30;3.90;;;3.23;;
2860;SDS011;1438;50.922;6.704;2023-04-28T00:14:56;5.33;;;3.07;;
2860;SDS011;1438;50.922;6.704;2023-04-28T00:17:22;13.00;;;4.23;;
2860;SDS011;1438;50.922;6.704;2023-04-28T00:19:48;9.67;;;4.10;;
2860;SDS011;1438;50.922;6.704;2023-04-28T00:22:15;4.90;;;3.50;;
2860;SDS011;1438;50.922;6.704;2023-04-28T00:24:41;4.70;;;3.30;;
2860;SDS011;1438;50.922;6.704;2023-04-28T00:27:07;6.27;;;3.70;;
2860;SDS011;1438;50.922;6.704;2023-04-28T00:29:33;6.50;;;3.80;;
2860;SDS011;1438;50.922;6.704;2023-04-28T00:31:59;4.27;;;3.20;;
2860;SDS011;1438;50.922;6.704;2023-04-28T00:34:25;5.00;;;3.53;;
2860;SDS011;1438;50.922;6.704;2023-04-28T00:36:51;5.70;;;4.00;;
2860;SDS011;1438;50.922;6.704;2023-04-28T00:39:17;6.53;;;3.57;;
2860;SDS011;1438;50.922;6.704;2023-04-28T00:41:43;5.00;;;4.20;;
2860;SDS011;1438;50.922;6.704;2023-04-28T00:44:09;6.40;;;4.00;;
2860;SDS011;1438;50.922;6.704;2023-04-28T00:46:35;5.40;;;3.83;;
2860;SDS011;1438;50.922;6.704;2023-04-28T00:49:01;6.23;;;3.87;;
2860;SDS011;1438;50.922;6.704;2023-04-28T00:51:28;5.43;;;4.17;;
2860;SDS011;1438;50.922;6.704;2023-04-28T00:53:55;7.80;;;5.63;;
2860;SDS011;1438;50.922;6.704;2023-04-28T00:56:21;8.63;;;4.20;;
2860;SDS011;1438;50.922;6.704;2023-04-28T00:58:47;8.70;;;3.90;;
2860;SDS011;1438;50.922;6.704;2023-04-28T01:01:13;7.38;;;4.07;;
2860;SDS011;1438;50.922;6.704;2023-04-28T01:03:39;7.67;;;4.47;;
2860;SDS011;1438;50.922;6.704;2023-04-28T01:06:06;6.95;;;4.55;;
2860;SDS011;1438;50.922;6.704;2023-04-28T01:08:33;7.28;;;4.53;;
2860;SDS011;1438;50.922;6.704;2023-04-28T01:11:00;5.87;;;4.43;;
2860;SDS011;1438;50.922;6.704;2023-04-28T01:13:26;5.87;;;4.43;;
2860;SDS011;1438;50.922;6.704;2023-04-28T01:15:52;10.07;;;4.80;;
2860;SDS011;1438;50.922;6.704;2023-04-28T01:18:18;9.93;;;5.07;;
2860;SDS011;1438;50.922;6.704;2023-04-28T01:20:44;6.60;;;5.13;;
2860;SDS011;1438;50.922;6.704;2023-04-28T01:23:11;7.70;;;5.40;;
2860;SDS011;1438;50.922;6.704;2023-04-28T01:25:37;8.35;;;5.65;;
2860;SDS011;1438;50.922;6.704;2023-04-28T01:28:03;7.70;;;6.20;;
2860;SDS011;1438;50.922;6.704;2023-04-28T01:30:29;7.90;;;6.60;;
2860;SDS011;1438;50.922;6.704;2023-04-28T01:32:55;8.83;;;5.90;;
2860;SDS011;1438;50.922;6.704;2023-04-28T01:35:21;10.20;;;6.47;;
2860;SDS011;1438;50.922;6.704;2023-04-28T01:37:47;9.43;;;6.40;;
2860;SDS011;1438;50.922;6.704;2023-04-28T01:40:13;10.60;;;6.80;;
2860;SDS011;1438;50.922;6.704;2023-04-28T01:42:39;15.13;;;7.20;;
2860;SDS011;1438;50.922;6.704;2023-04-28T01:45:05;7.77;;;6.87;;
2860;SDS011;1438;50.922;6.704;2023-04-28T01:47:31;10.70;;;6.82;;
2860;SDS011;1438;50.922;6.704;2023-04-28T01:49:57;10.27;;;6.45;;
2860;SDS011;1438;50.922;6.704;2023-04-28T01:52:23;7.82;;;6.60;;
2860;SDS011;1438;50.922;6.704;2023-04-28T01:54:51;16.30;;;7.67;;
2860;SDS011;1438;50.922;6.704;2023-04-28T01:57:36;9.23;;;7.67;;
2860;SDS011;1438;50.922;6.704;2023-04-28T02:00:02;9.23;;;7.00;;
2860;SDS011;1438;50.922;6.704;2023-04-28T02:02:29;11.00;;;7.75;;
2860;SDS011;1438;50.922;6.704;2023-04-28T02:04:55;13.83;;;8.53;;
2860;SDS011;1438;50.922;6.704;2023-04-28T02:07:22;11.63;;;7.97;;
2860;SDS011;1438;50.922;6.704;2023-04-28T02:09:48;13.10;;;8.50;;
2860;SDS011;1438;50.922;6.704;2023-04-28T02:12:14;11.70;;;7.73;;
2860;SDS011;1438;50.922;6.704;2023-04-28T02:14:41;8.88;;;7.60;;
2860;SDS011;1438;50.922;6.704;2023-04-28T02:17:07;11.80;;;8.40;;
2860;SDS011;1438;50.922;6.704;2023-04-28T02:19:33;13.63;;;8.20;;
2860;SDS011;1438;50.922;6.704;2023-04-28T02:21:59;10.70;;;7.60;;
2860;SDS011;1438;50.922;6.704;2023-04-28T02:24:25;9.90;;;8.13;;
2860;SDS011;1438;50.922;6.704;2023-04-28T02:26:51;9.90;;;7.10;;
2860;SDS011;1438;50.922;6.704;2023-04-28T02:29:17;9.70;;;8.55;;
2860;SDS011;1438;50.922;6.704;2023-04-28T02:31:43;10.40;;;8.25;;
2860;SDS011;1438;50.922;6.704;2023-04-28T02:34:10;8.38;;;7.55;;
2860;SDS011;1438;50.922;6.704;2023-04-28T02:36:36;12.47;;;8.57;;
2860;SDS011;1438;50.922;6.704;2023-04-28T02:39:02;10.90;;;7.37;;
2860;SDS011;1438;50.922;6.704;2023-04-28T02:41:28;14.05;;;8.38;;
2860;SDS011;1438;50.922;6.704;2023-04-28T02:43:55;10.25;;;7.85;;
2860;SDS011;1438;50.922;6.704;2023-04-28T02:46:21;10.23;;;8.45;;
2860;SDS011;1438;50.922;6.704;2023-04-28T02:48:47;9.90;;;8.90;;
2860;SDS011;1438;50.922;6.704;2023-04-28T02:51:13;13.70;;;9.47;;
2860;SDS011;1438;50.922;6.704;2023-04-28T02:53:38;14.43;;;8.60;;
2860;SDS011;1438;50.922;6.704;2023-04-28T02:56:05;12.75;;;10.55;;
2860;SDS011;1438;50.922;6.704;2023-04-28T02:58:31;13.70;;;9.23;;
2860;SDS011;1438;50.922;6.704;2023-04-28T03:00:57;13.80;;;8.87;;
2860;SDS011;1438;50.922;6.704;2023-04-28T03:03:23;16.73;;;11.70;;
2860;SDS011;1438;50.922;6.704;2023-04-28T03:05:49;15.25;;;11.85;;
2860;SDS011;1438;50.922;6.704;2023-04-28T03:08:15;16.95;;;11.35;;
2860;SDS011;1438;50.922;6.704;2023-04-28T03:10:41;17.23;;;11.98;;
2860;SDS011;1438;50.922;6.704;2023-04-28T03:13:07;14.30;;;10.43;;
2860;SDS011;1438;50.922;6.704;2023-04-28T03:15:33;17.10;;;10.90;;
2860;SDS011;1438;50.922;6.704;2023-04-28T03:17:59;13.60;;;10.35;;
2860;SDS011;1438;50.922;6.704;2023-04-28T03:20:25;11.38;;;10.10;;
2860;SDS011;1438;50.922;6.704;2023-04-28T03:22:51;14.43;;;10.57;;
2860;SDS011;1438;50.922;6.704;2023-04-28T03:25:18;14.18;;;12.35;;
2860;SDS011;1438;50.922;6.704;2023-04-28T03:27:44;14.85;;;11.40;;
2860;SDS011;1438;50.922;6.704;2023-04-28T03:30:10;14.27;;;12.50;;
2860;SDS011;1438;50.922;6.704;2023-04-28T03:32:36;17.17;;;11.65;;
2860;SDS011;1438;50.922;6.704;2023-04-28T03:35:02;15.03;;;12.13;;
2860;SDS011;1438;50.922;6.704;2023-04-28T03:37:28;17.42;;;11.95;;
2860;SDS011;1438;50.922;6.704;2023-04-28T03:39:54;15.75;;;12.93;;
2860;SDS011;1438;50.922;6.704;2023-04-28T03:42:20;13.87;;;12.43;;
2860;SDS011;1438;50.922;6.704;2023-04-28T03:44:46;15.70;;;12.80;;
2860;SDS011;1438;50.922;6.704;2023-04-28T03:47:12;15.60;;;14.10;;
2860;SDS011;1438;50.922;6.704;2023-04-28T03:49:38;17.27;;;13.77;;
2860;SDS011;1438;50.922;6.704;2023-04-28T03:52:04;17.67;;;13.27;;
2860;SDS011;1438;50.922;6.704;2023-04-28T03:54:31;19.65;;;14.52;;
2860;SDS011;1438;50.922;6.704;2023-04-28T03:56:57;19.13;;;14.40;;
2860;SDS011;1438;50.922;6.704;2023-04-28T03:59:23;19.80;;;13.60;;
2860;SDS011;1438;50.922;6.704;2023-04-28T04:01:49;20.87;;;13.27;;
2860;SDS011;1438;50.922;6.704;2023-04-28T04:04:15;14.07;;;12.63;;
2860;SDS011;1438;50.922;6.704;2023-04-28T04:06:41;21.40;;;13.93;;
2860;SDS011;1438;50.922;6.704;2023-04-28T04:09:07;18.33;;;12.97;;
2860;SDS011;1438;50.922;6.704;2023-04-28T04:11:33;14.13;;;11.60;;
2860;SDS011;1438;50.922;6.704;2023-04-28T04:13:59;14.73;;;13.23;;
2860;SDS011;1438;50.922;6.704;2023-04-28T04:16:25;15.27;;;13.45;;
2860;SDS011;1438;50.922;6.704;2023-04-28T04:18:51;22.65;;;12.82;;
2860;SDS011;1438;50.922;6.704;2023-04-28T04:21:17;17.23;;;11.83;;
2860;SDS011;1438;50.922;6.704;2023-04-28T04:23:43;14.63;;;12.43;;
2860;SDS011;1438;50.922;6.704;2023-04-28T04:26:09;17.60;;;12.30;;
2860;SDS011;1438;50.922;6.704;2023-04-28T04:28:35;12.63;;;10.63;;
2860;SDS011;1438;50.922;6.704;2023-04-28T04:31:01;13.33;;;11.93;;
2860;SDS011;1438;50.922;6.704;2023-04-28T04:33:27;12.40;;;10.87;;
2860;SDS011;1438;50.922;6.704;2023-04-28T04:35:53;15.05;;;11.25;;
2860;SDS011;1438;50.922;6.704;2023-04-28T04:38:19;17.05;;;11.02;;
2860;SDS011;1438;50.922;6.704;2023-04-28T04:40:45;14.52;;;11.73;;
2860;SDS011;1438;50.922;6.704;2023-04-28T04:43:11;14.95;;;11.05;;
2860;SDS011;1438;50.922;6.704;2023-04-28T04:45:37;17.88;;;9.82;;
2860;SDS011;1438;50.922;6.704;2023-04-28T04:48:03;15.77;;;10.87;;
2860;SDS011;1438;50.922;6.704;2023-04-28T04:50:29;15.23;;;11.63;;
2860;SDS011;1438;50.922;6.704;2023-04-28T04:52:55;15.10;;;10.43;;
2860;SDS011;1438;50.922;6.704;2023-04-28T04:55:22;12.98;;;9.48;;
2860;SDS011;1438;50.922;6.704;2023-04-28T04:57:48;12.05;;;10.13;;
2860;SDS011;1438;50.922;6.704;2023-04-28T05:00:14;17.08;;;10.93;;
2860;SDS011;1438;50.922;6.704;2023-04-28T05:02:41;15.52;;;10.50;;
2860;SDS011;1438;50.922;6.704;2023-04-28T05:05:07;12.45;;;10.82;;
2860;SDS011;1438;50.922;6.704;2023-04-28T05:07:33;14.63;;;10.63;;
2860;SDS011;1438;50.922;6.704;2023-04-28T05:10:00;11.48;;;9.77;;
2860;SDS011;1438;50.922;6.704;2023-04-28T05:12:26;14.38;;;10.38;;
2860;SDS011;1438;50.922;6.704;2023-04-28T05:14:51;18.10;;;10.10;;
2860;SDS011;1438;50.922;6.704;2023-04-28T05:17:17;14.63;;;10.20;;
2860;SDS011;1438;50.922;6.704;2023-04-28T05:19:43;12.00;;;9.60;;
2860;SDS011;1438;50.922;6.704;2023-04-28T05:22:10;15.85;;;11.50;;
2860;SDS011;1438;50.922;6.704;2023-04-28T05:24:36;12.40;;;10.60;;
2860;SDS011;1438;50.922;6.704;2023-04-28T05:27:02;16.60;;;12.68;;
2860;SDS011;1438;50.922;6.704;2023-04-28T05:29:28;15.35;;;11.85;;
2860;SDS011;1438;50.922;6.704;2023-04-28T05:31:54;17.73;;;12.70;;
2860;SDS011;1438;50.922;6.704;2023-04-28T05:34:20;16.75;;;12.77;;
2860;SDS011;1438;50.922;6.704;2023-04-28T05:36:46;16.05;;;13.50;;
2860;SDS011;1438;50.922;6.704;2023-04-28T05:39:12;14.65;;;13.02;;
2860;SDS011;1438;50.922;6.704;2023-04-28T05:41:38;15.00;;;13.07;;
2860;SDS011;1438;50.922;6.704;2023-04-28T05:44:04;15.63;;;13.10;;
2860;SDS011;1438;50.922;6.704;2023-04-28T05:46:30;21.23;;;14.10;;
2860;SDS011;1438;50.922;6.704;2023-04-28T05:48:56;18.00;;;14.10;;
2860;SDS011;1438;50.922;6.704;2023-04-28T05:51:22;18.90;;;14.07;;
2860;SDS011;1438;50.922;6.704;2023-04-28T05:53:48;16.83;;;13.40;;
2860;SDS011;1438;50.922;6.704;2023-04-28T05:56:14;19.60;;;12.37;;
2860;SDS011;1438;50.922;6.704;2023-04-28T05:58:41;16.23;;;13.13;;
2860;SDS011;1438;50.922;6.704;2023-04-28T06:01:27;15.48;;;13.18;;
2860;SDS011;1438;50.922;6.704;2023-04-28T06:04:20;15.00;;;13.05;;
2860;SDS011;1438;50.922;6.704;2023-04-28T06:07:18;14.57;;;12.75;;
2860;SDS011;1438;50.922;6.704;2023-04-28T06:10:17;14.50;;;13.00;;
2860;SDS011;1438;50.922;6.704;2023-04-28T06:13:07;16.20;;;11.80;;
2860;SDS011;1438;50.922;6.704;2023-04-28T06:15:59;19.63;;;12.43;;
2860;SDS011;1438;50.922;6.704;2023-04-28T06:18:45;15.07;;;12.02;;
2860;SDS011;1438;50.922;6.704;2023-04-28T06:35:21;19.55;;;12.75;;
2860;SDS011;1438;50.922;6.704;2023-04-28T06:37:47;18.48;;;12.43;;
2860;SDS011;1438;50.922;6.704;2023-04-28T06:40:13;19.63;;;12.33;;
2860;SDS011;1438;50.922;6.704;2023-04-28T06:42:39;16.63;;;12.93;;
2860;SDS011;1438;50.922;6.704;2023-04-28T06:45:05;14.43;;;12.27;;
2860;SDS011;1438;50.922;6.704;2023-04-28T06:47:31;18.60;;;12.02;;
2860;SDS011;1438;50.922;6.704;2023-04-28T06:49:57;17.95;;;13.05;;
2860;SDS011;1438;50.922;6.704;2023-04-28T06:52:25;17.50;;;11.50;;
2860;SDS011;1438;50.922;6.704;2023-04-28T06:54:53;14.03;;;11.97;;
2860;SDS011;1438;50.922;6.704;2023-04-28T06:57:19;13.80;;;10.53;;
2860;SDS011;1438;50.922;6.704;2023-04-28T06:59:45;16.40;;;11.70;;
2860;SDS011;1438;50.922;6.704;2023-04-28T07:02:11;14.73;;;10.97;;
2860;SDS011;1438;50.922;6.704;2023-04-28T07:04:37;19.00;;;9.90;;
2860;SDS011;1438;50.922;6.704;2023-04-28T07:07:03;12.47;;;9.00;;
2860;SDS011;1438;50.922;6.704;2023-04-28T07:09:33;12.37;;;10.20;;
2860;SDS011;1438;50.922;6.704;2023-04-28T07:11:59;14.77;;;8.93;;
2860;SDS011;1438;50.922;6.704;2023-04-28T07:14:25;13.27;;;9.23;;
2860;SDS011;1438;50.922;6.704;2023-04-28T07:16:51;13.50;;;9.30;;
2860;SDS011;1438;50.922;6.704;2023-04-28T07:19:17;11.40;;;9.70;;
2860;SDS011;1438;50.922;6.704;2023-04-28T07:21:43;15.33;;;8.33;;
2860;SDS011;1438;50.922;6.704;2023-04-28T07:24:10;10.47;;;8.73;;
2860;SDS011;1438;50.922;6.704;2023-04-28T07:26:36;12.00;;;8.97;;
2860;SDS011;1438;50.922;6.704;2023-04-28T07:29:01;10.63;;;8.53;;
2860;SDS011;1438;50.922;6.704;2023-04-28T07:31:28;11.00;;;8.13;;
2860;SDS011;1438;50.922;6.704;2023-04-28T07:33:54;12.07;;;8.50;;
2860;SDS011;1438;50.922;6.704;2023-04-28T07:36:20;11.00;;;8.40;;
2860;SDS011;1438;50.922;6.704;2023-04-28T07:38:46;9.17;;;8.07;;
2860;SDS011;1438;50.922;6.704;2023-04-28T07:41:12;8.73;;;7.93;;
2860;SDS011;1438;50.922;6.704;2023-04-28T07:43:38;9.17;;;6.77;;
2860;SDS011;1438;50.922;6.704;2023-04-28T07:46:05;7.47;;;6.40;;
2860;SDS011;1438;50.922;6.704;2023-04-28T07:48:32;9.43;;;7.47;;
2860;SDS011;1438;50.922;6.704;2023-04-28T07:50:58;9.27;;;7.27;;
2860;SDS011;1438;50.922;6.704;2023-04-28T07:53:24;10.13;;;6.97;;
2860;SDS011;1438;50.922;6.704;2023-04-28T07:55:50;11.80;;;7.23;;
2860;SDS011;1438;50.922;6.704;2023-04-28T07:58:16;12.23;;;7.77;;
2860;SDS011;1438;50.922;6.704;2023-04-28T08:00:42;9.77;;;7.00;;
2860;SDS011;1438;50.922;6.704;2023-04-28T08:03:08;8.57;;;6.30;;
2860;SDS011;1438;50.922;6.704;2023-04-28T08:05:34;10.97;;;6.90;;
2860;SDS011;1438;50.922;6.704;2023-04-28T08:08:00;8.47;;;6.70;;
2860;SDS011;1438;50.922;6.704;2023-04-28T08:10:27;10.10;;;7.10;;
2860;SDS011;1438;50.922;6.704;2023-04-28T08:12:53;8.97;;;7.20;;
2860;SDS011;1438;50.922;6.704;2023-04-28T08:15:19;9.50;;;7.13;;
2860;SDS011;1438;50.922;6.704;2023-04-28T08:17:45;10.33;;;7.20;;
2860;SDS011;1438;50.922;6.704;2023-04-28T08:20:11;8.30;;;6.70;;
2860;SDS011;1438;50.922;6.704;2023-04-28T08:22:39;10.37;;;8.00;;
2860;SDS011;1438;50.922;6.704;2023-04-28T08:25:06;9.47;;;6.47;;
2860;SDS011;1438;50.922;6.704;2023-04-28T08:27:32;14.80;;;8.23;;
2860;SDS011;1438;50.922;6.704;2023-04-28T08:29:58;8.67;;;7.33;;
2860;SDS011;1438;50.922;6.704;2023-04-28T08:32:24;9.10;;;6.93;;
2860;SDS011;1438;50.922;6.704;2023-04-28T08:34:50;13.03;;;7.00;;
2860;SDS011;1438;50.922;6.704;2023-04-28T08:37:16;12.73;;;7.80;;
2860;SDS011;1438;50.922;6.704;2023-04-28T08:39:42;8.23;;;7.43;;
2860;SDS011;1438;50.922;6.704;2023-04-28T08:42:08;8.03;;;7.23;;
2860;SDS011;1438;50.922;6.704;2023-04-28T08:44:37;8.63;;;7.60;;
2860;SDS011;1438;50.922;6.704;2023-04-28T08:47:13;8.90;;;7.17;;
2860;SDS011;1438;50.922;6.704;2023-04-28T08:49:39;8.30;;;7.27;;
2860;SDS011;1438;50.922;6.704;2023-04-28T08:52:09;8.90;;;7.00;;
2860;SDS011;1438;50.922;6.704;2023-04-28T08:54:37;8.00;;;7.20;;
2860;SDS011;1438;50.922;6.704;2023-04-28T08:57:03;17.70;;;7.67;;
2860;SDS011;1438;50.922;6.704;2023-04-28T08:59:29;11.67;;;7.23;;
2860;SDS011;1438;50.922;6.704;2023-04-28T09:01:56;9.13;;;8.23;;
2860;SDS011;1438;50.922;6.704;2023-04-28T09:04:22;9.50;;;7.63;;
2860;SDS011;1438;50.922;6.704;2023-04-28T09:06:48;12.07;;;8.83;;
2860;SDS011;1438;50.922;6.704;2023-04-28T09:09:18;12.63;;;9.03;;
2860;SDS011;1438;50.922;6.704;2023-04-28T09:11:49;9.13;;;8.10;;
2860;SDS011;1438;50.922;6.704;2023-04-28T09:14:15;11.77;;;9.07;;
2860;SDS011;1438;50.922;6.704;2023-04-28T09:16:41;10.60;;;8.93;;
2860;SDS011;1438;50.922;6.704;2023-04-28T09:19:07;13.50;;;10.33;;
2860;SDS011;1438;50.922;6.704;2023-04-28T09:21:44;11.67;;;9.60;;
2860;SDS011;1438;50.922;6.704;2023-04-28T09:24:10;11.00;;;9.30;;
2860;SDS011;1438;50.922;6.704;2023-04-28T09:26:49;9.30;;;8.50;;
2860;SDS011;1438;50.922;6.704;2023-04-28T09:29:15;12.90;;;9.50;;
2860;SDS011;1438;50.922;6.704;2023-04-28T09:31:40;10.73;;;9.73;;
2860;SDS011;1438;50.922;6.704;2023-04-28T09:34:07;9.57;;;8.60;;
2860;SDS011;1438;50.922;6.704;2023-04-28T09:36:34;13.33;;;8.97;;
2860;SDS011;1438;50.922;6.704;2023-04-28T09:39:00;11.17;;;9.93;;
2860;SDS011;1438;50.922;6.704;2023-04-28T09:41:36;10.50;;;9.50;;
2860;SDS011;1438;50.922;6.704;2023-04-28T09:46:36;11.80;;;10.30;;
2860;SDS011;1438;50.922;6.704;2023-04-28T09:49:02;13.40;;;11.70;;
2860;SDS011;1438;50.922;6.704;2023-04-28T09:51:28;12.67;;;11.37;;
2860;SDS011;1438;50.922;6.704;2023-04-28T09:53:54;13.57;;;12.10;;
2860;SDS011;1438;50.922;6.704;2023-04-28T09:56:23;12.30;;;11.03;;
2860;SDS011;1438;50.922;6.704;2023-04-28T09:58:49;11.90;;;10.70;;
2860;SDS011;1438;50.922;6.704;2023-04-28T10:01:16;13.10;;;11.77;;
2860;SDS011;1438;50.922;6.704;2023-04-28T10:03:42;13.53;;;10.93;;
2860;SDS011;1438;50.922;6.704;2023-04-28T10:06:08;10.87;;;9.73;;
2860;SDS011;1438;50.922;6.704;2023-04-28T10:08:34;12.87;;;11.67;;
2860;SDS011;1438;50.922;6.704;2023-04-28T10:11:00;13.40;;;9.90;;
2860;SDS011;1438;50.922;6.704;2023-04-28T10:13:26;12.60;;;9.33;;
2860;SDS011;1438;50.922;6.704;2023-04-28T10:15:53;11.37;;;10.10;;
2860;SDS011;1438;50.922;6.704;2023-04-28T10:18:19;14.60;;;9.33;;
2860;SDS011;1438;50.922;6.704;2023-04-28T10:20:48;10.80;;;8.50;;
2860;SDS011;1438;50.922;6.704;2023-04-28T10:25:47;7.77;;;7.07;;
2860;SDS011;1438;50.922;6.704;2023-04-28T10:28:13;7.67;;;6.53;;
2860;SDS011;1438;50.922;6.704;2023-04-28T10:30:40;6.13;;;5.53;;
2860;SDS011;1438;50.922;6.704;2023-04-28T10:38:06;5.37;;;4.83;;
2860;SDS011;1438;50.922;6.704;2023-04-28T10:40:41;5.33;;;4.87;;
2860;SDS011;1438;50.922;6.704;2023-04-28T10:43:09;5.13;;;4.63;;
2860;SDS011;1438;50.922;6.704;2023-04-28T10:48:14;5.57;;;5.10;;
2860;SDS011;1438;50.922;6.704;2023-04-28T10:56:10;5.73;;;5.27;;
2860;SDS011;1438;50.922;6.704;2023-04-28T10:58:36;6.00;;;5.50;;
2860;SDS011;1438;50.922;6.704;2023-04-28T11:06:24;6.20;;;5.60;;
2860;SDS011;1438;50.922;6.704;2023-04-28T11:08:54;5.13;;;4.73;;
2860;SDS011;1438;50.922;6.704;2023-04-28T11:11:28;8.00;;;7.30;;
2860;SDS011;1438;50.922;6.704;2023-04-28T11:16:58;5.43;;;5.03;;
2860;SDS011;1438;50.922;6.704;2023-04-28T11:19:26;6.23;;;5.50;;
2860;SDS011;1438;50.922;6.704;2023-04-28T11:21:53;5.73;;;5.27;;
2860;SDS011;1438;50.922;6.704;2023-04-28T11:24:20;5.70;;;5.30;;
2860;SDS011;1438;50.922;6.704;2023-04-28T11:26:46;5.40;;;5.00;;
2860;SDS011;1438;50.922;6.704;2023-04-28T11:29:13;5.23;;;4.83;;
2860;SDS011;1438;50.922;6.704;2023-04-28T11:31:39;6.27;;;4.33;;
2860;SDS011;1438;50.922;6.704;2023-04-28T11:34:11;4.40;;;4.00;;
2860;SDS011;1438;50.922;6.704;2023-04-28T11:36:40;4.07;;;3.77;;
2860;SDS011;1438;50.922;6.704;2023-04-28T11:39:07;6.80;;;4.30;;
2860;SDS011;1438;50.922;6.704;2023-04-28T11:41:38;4.37;;;3.93;;
2860;SDS011;1438;50.922;6.704;2023-04-28T11:44:11;4.00;;;3.70;;
2860;SDS011;1438;50.922;6.704;2023-04-28T11:46:49;4.03;;;3.40;;
2860;SDS011;1438;50.922;6.704;2023-04-28T11:49:19;3.50;;;3.30;;
2860;SDS011;1438;50.922;6.704;2023-04-28T11:51:46;3.53;;;3.23;;
2860;SDS011;1438;50.922;6.704;2023-04-28T11:54:15;4.20;;;3.90;;
2860;SDS011;1438;50.922;6.704;2023-04-28T11:56:44;3.27;;;3.00;;
2860;SDS011;1438;50.922;6.704;2023-04-28T11:59:11;3.93;;;3.00;;
2860;SDS011;1438;50.922;6.704;2023-04-28T12:04:09;3.77;;;3.47;;
2860;SDS011;1438;50.922;6.704;2023-04-28T12:06:36;3.30;;;2.83;;
2860;SDS011;1438;50.922;6.704;2023-04-28T12:09:13;3.63;;;3.33;;
2860;SDS011;1438;50.922;6.704;2023-04-28T12:11:50;3.00;;;2.70;;
2860;SDS011;1438;50.922;6.704;2023-04-28T12:14:16;3.93;;;3.27;;
2860;SDS011;1438;50.922;6.704;2023-04-28T12:16:42;2.97;;;2.70;;
2860;SDS011;1438;50.922;6.704;2023-04-28T12:19:09;2.53;;;2.33;;
2860;SDS011;1438;50.922;6.704;2023-04-28T12:21:36;3.13;;;2.93;;
2860;SDS011;1438;50.922;6.704;2023-04-28T12:24:16;3.03;;;2.80;;
2860;SDS011;1438;50.922;6.704;2023-04-28T12:26:42;2.97;;;2.77;;
2860;SDS011;1438;50.922;6.704;2023-04-28T12:29:08;3.33;;;3.07;;
2860;SDS011;1438;50.922;6.704;2023-04-28T12:31:49;4.83;;;2.63;;
2860;SDS011;1438;50.922;6.704;2023-04-28T12:34:17;3.13;;;2.40;;
2860;SDS011;1438;50.922;6.704;2023-04-28T12:36:43;2.07;;;1.97;;
2860;SDS011;1438;50.922;6.704;2023-04-28T12:39:13;3.50;;;2.50;;
2860;SDS011;1438;50.922;6.704;2023-04-28T12:41:44;2.90;;;2.70;;
2860;SDS011;1438;50.922;6.704;2023-04-28T12:44:10;3.33;;;2.43;;
2860;SDS011;1438;50.922;6.704;2023-04-28T12:46:36;2.17;;;2.07;;
2860;SDS011;1438;50.922;6.704;2023-04-28T12:49:02;2.60;;;2.40;;
2860;SDS011;1438;50.922;6.704;2023-04-28T12:51:29;2.40;;;2.20;;
2860;SDS011;1438;50.922;6.704;2023-04-28T12:53:55;3.53;;;3.20;;
2860;SDS011;1438;50.922;6.704;2023-04-28T12:56:21;3.70;;;3.40;;
2860;SDS011;1438;50.922;6.704;2023-04-28T12:58:47;2.70;;;2.50;;
2860;SDS011;1438;50.922;6.704;2023-04-28T13:01:13;2.83;;;2.63;;
2860;SDS011;1438;50.922;6.704;2023-04-28T13:03:40;3.20;;;3.00;;
2860;SDS011;1438;50.922;6.704;2023-04-28T13:06:08;3.30;;;2.70;;
2860;SDS011;1438;50.922;6.704;2023-04-28T13:08:34;3.03;;;2.73;;
2860;SDS011;1438;50.922;6.704;2023-04-28T13:11:00;2.57;;;2.37;;
2860;SDS011;1438;50.922;6.704;2023-04-28T13:13:29;3.20;;;2.40;;
2860;SDS011;1438;50.922;6.704;2023-04-28T13:15:55;3.10;;;2.77;;
2860;SDS011;1438;50.922;6.704;2023-04-28T13:18:21;3.57;;;3.10;;
2860;SDS011;1438;50.922;6.704;2023-04-28T13:20:48;3.30;;;3.10;;
2860;SDS011;1438;50.922;6.704;2023-04-28T13:23:14;3.37;;;3.13;;
2860;SDS011;1438;50.922;6.704;2023-04-28T13:25:40;2.97;;;2.77;;
2860;SDS011;1438;50.922;6.704;2023-04-28T13:28:06;3.07;;;2.87;;
2860;SDS011;1438;50.922;6.704;2023-04-28T13:30:32;3.03;;;2.83;;
2860;SDS011;1438;50.922;6.704;2023-04-28T13:32:58;3.30;;;3.00;;
2860;SDS011;1438;50.922;6.704;2023-04-28T13:35:24;2.53;;;2.33;;
2860;SDS011;1438;50.922;6.704;2023-04-28T13:37:51;2.77;;;2.23;;
2860;SDS011;1438;50.922;6.704;2023-04-28T13:40:25;3.20;;;2.60;;
2860;SDS011;1438;50.922;6.704;2023-04-28T13:42:51;2.10;;;1.90;;
2860;SDS011;1438;50.922;6.704;2023-04-28T13:45:17;1.50;;;1.40;;
2860;SDS011;1438;50.922;6.704;2023-04-28T13:47:43;2.30;;;2.10;;
2860;SDS011;1438;50.922;6.704;2023-04-28T13:50:09;1.57;;;1.30;;
2860;SDS011;1438;50.922;6.704;2023-04-28T13:52:35;1.60;;;1.50;;
2860;SDS011;1438;50.922;6.704;2023-04-28T13:55:01;2.13;;;1.20;;
2860;SDS011;1438;50.922;6.704;2023-04-28T13:57:27;1.53;;;1.27;;
2860;SDS011;1438;50.922;6.704;2023-04-28T13:59:53;4.30;;;1.20;;
2860;SDS011;1438;50.922;6.704;2023-04-28T14:02:19;2.07;;;1.27;;
2860;SDS011;1438;50.922;6.704;2023-04-28T14:04:45;2.13;;;1.20;;
2860;SDS011;1438;50.922;6.704;2023-04-28T14:07:14;1.73;;;1.10;;
2860;SDS011;1438;50.922;6.704;2023-04-28T14:09:40;2.00;;;1.10;;
2860;SDS011;1438;50.922;6.704;2023-04-28T14:12:06;1.40;;;1.30;;
2860;SDS011;1438;50.922;6.704;2023-04-28T14:14:32;2.40;;;1.27;;
2860;SDS011;1438;50.922;6.704;2023-04-28T14:16:58;1.50;;;1.30;;
2860;SDS011;1438;50.922;6.704;2023-04-28T14:19:24;1.37;;;1.00;;
2860;SDS011;1438;50.922;6.704;2023-04-28T14:21:54;1.27;;;0.90;;
2860;SDS011;1438;50.922;6.704;2023-04-28T14:24:20;1.97;;;1.00;;
2860;SDS011;1438;50.922;6.704;2023-04-28T14:26:46;0.90;;;0.80;;
2860;SDS011;1438;50.922;6.704;2023-04-28T14:29:13;1.90;;;1.10;;
2860;SDS011;1438;50.922;6.704;2023-04-28T14:31:40;2.93;;;1.10;;
2860;SDS011;1438;50.922;6.704;2023-04-28T14:34:06;2.03;;;1.10;;
2860;SDS011;1438;50.922;6.704;2023-04-28T14:36:32;1.50;;;1.40;;
2860;SDS011;1438;50.922;6.704;2023-04-28T14:38:58;1.50;;;1.40;;
2860;SDS011;1438;50.922;6.704;2023-04-28T14:41:25;2.53;;;1.40;;
2860;SDS011;1438;50.922;6.704;2023-04-28T14:43:51;2.07;;;1.00;;
2860;SDS011;1438;50.922;6.704;2023-04-28T14:46:17;1.60;;;1.07;;
2860;SDS011;1438;50.922;6.704;2023-04-28T14:48:46;1.40;;;1.03;;
2860;SDS011;1438;50.922;6.704;2023-04-28T14:51:13;4.60;;;1.27;;
2860;SDS011;1438;50.922;6.704;2023-04-28T14:53:39;1.20;;;1.00;;
2860;SDS011;1438;50.922;6.704;2023-04-28T14:56:05;1.37;;;0.93;;
2860;SDS011;1438;50.922;6.704;2023-04-28T14:58:31;1.77;;;1.60;;
2860;SDS011;1438;50.922;6.704;2023-04-28T15:00:57;1.27;;;1.17;;
2860;SDS011;1438;50.922;6.704;2023-04-28T15:03:23;1.37;;;1.27;;
2860;SDS011;1438;50.922;6.704;2023-04-28T15:05:49;1.27;;;1.10;;
2860;SDS011;1438;50.922;6.704;2023-04-28T15:08:17;1.43;;;1.23;;
2860;SDS011;1438;50.922;6.704;2023-04-28T15:10:43;1.70;;;1.60;;
2860;SDS011;1438;50.922;6.704;2023-04-28T15:13:09;2.17;;;1.67;;
2860;SDS011;1438;50.922;6.704;2023-04-28T15:15:35;2.27;;;2.07;;
2860;SDS011;1438;50.922;6.704;2023-04-28T15:18:02;2.37;;;2.00;;
2860;SDS011;1438;50.922;6.704;2023-04-28T15:20:28;2.50;;;2.30;;
2860;SDS011;1438;50.922;6.704;2023-04-28T15:22:55;2.27;;;2.17;;
2860;SDS011;1438;50.922;6.704;2023-04-28T15:25:21;2.47;;;2.27;;
2860;SDS011;1438;50.922;6.704;2023-04-28T15:27:47;2.83;;;2.13;;
2860;SDS011;1438;50.922;6.704;2023-04-28T15:30:14;2.87;;;2.30;;
2860;SDS011;1438;50.922;6.704;2023-04-28T15:32:40;2.80;;;2.60;;
2860;SDS011;1438;50.922;6.704;2023-04-28T15:35:07;2.93;;;2.73;;
2860;SDS011;1438;50.922;6.704;2023-04-28T15:37:37;3.53;;;2.63;;
2860;SDS011;1438;50.922;6.704;2023-04-28T15:40:04;2.60;;;2.40;;
2860;SDS011;1438;50.922;6.704;2023-04-28T15:42:31;3.87;;;2.43;;
2860;SDS011;1438;50.922;6.704;2023-04-28T15:44:57;3.00;;;2.20;;
2860;SDS011;1438;50.922;6.704;2023-04-28T15:47:23;3.43;;;2.20;;